createdAt,value
2018-06-19T00:00:03.405Z,3.87
2018-06-19T00:01:19.831Z,3.20
2018-06-19T00:02:23.288Z,3.50
2018-06-19T00:03:26.399Z,3.42
2018-06-19T00:04:29.768Z,3.40
2018-06-19T00:05:34.571Z,3.65
2018-06-19T00:06:37.973Z,3.45
2018-06-19T00:07:41.375Z,3.55
2018-06-19T00:08:44.775Z,3.50
2018-06-19T00:09:48.152Z,3.30
2018-06-19T00:10:52.681Z,3.37
2018-06-19T00:11:56.095Z,3.40
2018-06-19T00:12:59.555Z,3.62
2018-06-19T00:14:03.123Z,3.15
2018-06-19T00:15:13.929Z,3.47
2018-06-19T00:16:18.729Z,3.58
2018-06-19T00:17:22.160Z,3.62
2018-06-19T00:18:27.788Z,3.33
2018-06-19T00:19:31.207Z,3.12
2018-06-19T00:20:35.621Z,3.22
2018-06-19T00:21:45.835Z,3.42
2018-06-19T00:22:48.899Z,3.80
2018-06-19T00:23:52.275Z,3.50
2018-06-19T00:24:55.671Z,3.17
2018-06-19T00:25:59.994Z,3.47
2018-06-19T00:27:03.395Z,3.27
2018-06-19T00:28:13.175Z,3.42
2018-06-19T00:29:16.568Z,3.40
2018-06-19T00:30:20.980Z,3.12
2018-06-19T00:31:25.341Z,3.92
2018-06-19T00:32:28.749Z,3.25
2018-06-19T00:33:32.119Z,3.20
2018-06-19T00:34:35.492Z,3.30
2018-06-19T00:35:39.941Z,3.40
2018-06-19T00:36:43.363Z,3.40
2018-06-19T00:37:46.446Z,3.00
2018-06-19T00:38:49.542Z,3.10
2018-06-19T00:39:53.111Z,3.10
2018-06-19T00:40:57.001Z,3.80
2018-06-19T00:42:00.391Z,3.52
2018-06-19T00:43:03.788Z,3.40
2018-06-19T00:44:07.107Z,3.27
2018-06-19T00:45:11.734Z,3.12
2018-06-19T00:46:17.043Z,3.25
2018-06-19T00:47:20.499Z,3.70
2018-06-19T00:48:23.582Z,3.55
2018-06-19T00:49:26.954Z,3.02
2018-06-19T00:50:31.461Z,3.20
2018-06-19T00:51:34.908Z,3.40
2018-06-19T00:52:38.323Z,2.92
2018-06-19T00:53:41.731Z,3.30
2018-06-19T00:54:45.111Z,3.17
2018-06-19T00:55:49.532Z,3.15
2018-06-19T00:56:55.687Z,3.20
2018-06-19T00:57:58.763Z,3.30
2018-06-19T00:59:01.848Z,3.15
2018-06-19T01:00:06.282Z,3.37
2018-06-19T01:01:10.912Z,3.08
2018-06-19T01:02:14.341Z,3.20
2018-06-19T01:03:17.769Z,3.05
2018-06-19T01:04:21.152Z,3.15
2018-06-19T01:05:25.618Z,3.10
2018-06-19T01:06:29.211Z,3.10
2018-06-19T01:07:32.667Z,3.00
2018-06-19T01:08:36.043Z,3.15
2018-06-19T01:09:39.423Z,3.20
2018-06-19T01:10:43.870Z,2.90
2018-06-19T01:11:47.263Z,2.83
2018-06-19T01:12:50.664Z,2.90
2018-06-19T01:13:53.764Z,2.85
2018-06-19T01:14:57.150Z,3.15
2018-06-19T01:16:00.961Z,3.05
2018-06-19T01:17:04.395Z,3.08
2018-06-19T01:18:07.783Z,3.25
2018-06-19T01:19:11.227Z,3.62
2018-06-19T01:20:15.730Z,3.10
2018-06-19T01:21:20.254Z,3.10
2018-06-19T01:22:23.675Z,3.45
2018-06-19T01:23:27.132Z,2.85
2018-06-19T01:24:30.508Z,2.92
2018-06-19T01:25:34.901Z,3.10
2018-06-19T01:26:38.351Z,3.25
2018-06-19T01:27:41.727Z,3.00
2018-06-19T01:28:45.128Z,3.05
2018-06-19T01:29:48.506Z,3.30
2018-06-19T01:30:53.004Z,2.98
2018-06-19T01:31:56.108Z,2.47
2018-06-19T01:32:59.492Z,3.30
2018-06-19T01:34:02.887Z,3.08
2018-06-19T01:35:07.332Z,2.90
2018-06-19T01:36:11.733Z,3.20
2018-06-19T01:37:15.132Z,3.08
2018-06-19T01:38:18.590Z,3.10
2018-06-19T01:39:21.955Z,3.00
2018-06-19T01:40:27.731Z,3.02
2018-06-19T01:41:31.163Z,2.95
2018-06-19T01:42:34.547Z,2.98
2018-06-19T01:43:37.927Z,3.70
2018-06-19T01:44:41.319Z,3.50
2018-06-19T01:45:45.745Z,2.87
2018-06-19T01:46:49.136Z,3.35
2018-06-19T01:47:52.543Z,3.40
2018-06-19T01:48:55.630Z,3.47
2018-06-19T01:49:59.039Z,3.50
2018-06-19T01:51:03.514Z,3.22
2018-06-19T01:52:06.944Z,3.22
2018-06-19T01:53:10.350Z,3.27
2018-06-19T01:54:13.728Z,3.50
2018-06-19T01:55:19.139Z,3.58
2018-06-19T01:56:23.481Z,3.50
2018-06-19T01:57:26.881Z,3.37
2018-06-19T01:58:30.266Z,3.58
2018-06-19T01:59:33.655Z,3.33
2018-06-19T02:00:38.060Z,3.67
2018-06-19T02:01:41.147Z,4.30
2018-06-19T02:02:44.528Z,3.40
2018-06-19T02:03:47.907Z,3.95
2018-06-19T02:04:51.288Z,4.03
2018-06-19T02:05:55.756Z,3.70
2018-06-19T02:06:59.159Z,4.00
2018-06-19T02:08:02.528Z,3.65
2018-06-19T02:09:07.879Z,3.77
2018-06-19T02:10:12.710Z,4.08
2018-06-19T02:11:17.460Z,3.75
2018-06-19T02:12:20.882Z,3.90
2018-06-19T02:13:24.251Z,3.70
2018-06-19T02:14:27.634Z,4.00
2018-06-19T02:15:32.192Z,4.10
2018-06-19T02:16:35.635Z,4.40
2018-06-19T02:17:39.015Z,4.20
2018-06-19T02:18:42.095Z,4.50
2018-06-19T02:19:45.475Z,3.92
2018-06-19T02:20:49.513Z,3.70
2018-06-19T02:21:52.959Z,4.17
2018-06-19T02:22:56.341Z,4.00
2018-06-19T02:23:59.719Z,4.40
2018-06-19T02:25:03.362Z,4.20
2018-06-19T02:26:07.799Z,3.92
2018-06-19T02:27:11.302Z,4.47
2018-06-19T02:28:14.683Z,4.30
2018-06-19T02:29:18.059Z,4.05
2018-06-19T02:30:23.113Z,4.00
2018-06-19T02:31:27.619Z,3.65
2018-06-19T02:32:30.735Z,4.30
2018-06-19T02:33:34.108Z,4.10
2018-06-19T02:34:37.175Z,4.75
2018-06-19T02:35:41.590Z,3.87
2018-06-19T02:36:44.991Z,4.20
2018-06-19T02:37:48.261Z,3.83
2018-06-19T02:38:51.402Z,4.33
2018-06-19T02:39:55.135Z,4.10
2018-06-19T02:40:59.464Z,4.03
2018-06-19T02:42:02.880Z,4.03
2018-06-19T02:43:06.275Z,4.15
2018-06-19T02:44:09.667Z,4.12
2018-06-19T02:45:14.448Z,3.70
2018-06-19T02:46:18.971Z,4.12
2018-06-19T02:47:22.443Z,4.58
2018-06-19T02:48:25.860Z,3.87
2018-06-19T02:49:29.236Z,4.10
2018-06-19T02:50:33.665Z,4.00
2018-06-19T02:51:36.776Z,4.00
2018-06-19T02:52:39.872Z,3.75
2018-06-19T02:53:43.311Z,4.50
2018-06-19T02:54:46.703Z,4.70
2018-06-19T02:55:50.987Z,5.08
2018-06-19T02:56:54.399Z,4.53
2018-06-19T02:57:57.807Z,3.98
2018-06-19T02:59:00.927Z,5.85
2018-06-19T03:00:05.977Z,4.55
2018-06-19T03:01:09.824Z,3.90
2018-06-19T03:02:13.225Z,3.92
2018-06-19T03:03:16.599Z,4.22
2018-06-19T03:04:19.992Z,3.92
2018-06-19T03:05:24.445Z,3.98
2018-06-19T03:06:28.839Z,4.00
2018-06-19T03:07:32.221Z,4.22
2018-06-19T03:08:35.600Z,4.40
2018-06-19T03:09:39.004Z,4.15
2018-06-19T03:10:44.990Z,3.87
2018-06-19T03:11:48.401Z,4.08
2018-06-19T03:12:51.800Z,3.83
2018-06-19T03:13:55.179Z,4.10
2018-06-19T03:14:58.588Z,3.67
2018-06-19T03:16:02.936Z,4.50
2018-06-19T03:17:06.031Z,4.03
2018-06-19T03:18:09.107Z,4.33
2018-06-19T03:19:12.199Z,3.90
2018-06-19T03:20:16.687Z,3.70
2018-06-19T03:21:21.087Z,4.65
2018-06-19T03:22:24.194Z,4.17
2018-06-19T03:23:27.270Z,3.55
2018-06-19T03:24:30.653Z,4.70
2018-06-19T03:25:35.426Z,4.08
2018-06-19T03:26:38.835Z,4.20
2018-06-19T03:27:42.499Z,4.12
2018-06-19T03:28:45.910Z,4.17
2018-06-19T03:29:49.365Z,4.50
2018-06-19T03:30:54.212Z,4.12
2018-06-19T03:31:57.615Z,3.90
2018-06-19T03:33:00.997Z,4.33
2018-06-19T03:34:04.386Z,4.15
2018-06-19T03:35:08.284Z,4.30
2018-06-19T03:36:12.630Z,4.65
2018-06-19T03:37:16.260Z,4.25
2018-06-19T03:38:19.647Z,4.00
2018-06-19T03:39:23.031Z,3.85
2018-06-19T03:40:27.408Z,4.17
2018-06-19T03:41:30.854Z,4.87
2018-06-19T03:42:33.939Z,4.35
2018-06-19T03:43:37.014Z,3.62
2018-06-19T03:44:40.091Z,4.25
2018-06-19T03:45:44.408Z,3.95
2018-06-19T03:46:47.523Z,4.30
2018-06-19T03:47:50.903Z,4.10
2018-06-19T03:48:54.284Z,4.42
2018-06-19T03:49:57.659Z,4.40
2018-06-19T03:51:02.231Z,3.90
2018-06-19T03:52:05.562Z,3.90
2018-06-19T03:53:08.959Z,4.00
2018-06-19T03:54:12.335Z,3.77
2018-06-19T03:55:17.153Z,4.00
2018-06-19T03:56:21.593Z,4.10
2018-06-19T03:57:24.999Z,4.25
2018-06-19T03:58:28.444Z,4.05
2018-06-19T03:59:31.807Z,3.77
2018-06-19T04:00:35.691Z,4.08
2018-06-19T04:01:38.775Z,3.65
2018-06-19T04:02:41.890Z,4.08
2018-06-19T04:03:45.275Z,10.48
2018-06-19T04:04:48.647Z,4.92
2018-06-19T04:05:53.159Z,4.03
2018-06-19T04:06:56.563Z,3.95
2018-06-19T04:07:59.963Z,4.40
2018-06-19T04:09:05.404Z,3.95
2018-06-19T04:10:09.949Z,3.55
2018-06-19T04:11:14.294Z,3.80
2018-06-19T04:12:17.759Z,3.80
2018-06-19T04:13:20.857Z,3.95
2018-06-19T04:14:24.228Z,3.75
2018-06-19T04:15:28.620Z,3.27
2018-06-19T04:16:31.714Z,4.15
2018-06-19T04:17:34.817Z,3.67
2018-06-19T04:18:38.247Z,3.72
2018-06-19T04:19:41.659Z,3.35
2018-06-19T04:20:45.545Z,3.30
2018-06-19T04:21:48.643Z,3.50
2018-06-19T04:22:51.727Z,3.77
2018-06-19T04:23:55.139Z,3.37
2018-06-19T04:24:59.367Z,3.58
2018-06-19T04:26:04.568Z,3.50
2018-06-19T04:27:07.971Z,3.58
2018-06-19T04:28:11.347Z,3.60
2018-06-19T04:29:14.747Z,3.15
2018-06-19T04:30:19.174Z,3.70
2018-06-19T04:31:22.859Z,3.02
2018-06-19T04:32:26.287Z,3.30
2018-06-19T04:33:29.420Z,4.53
2018-06-19T04:34:32.783Z,3.70
2018-06-19T04:35:38.124Z,3.25
2018-06-19T04:36:41.563Z,4.22
2018-06-19T04:37:44.955Z,3.72
2018-06-19T04:38:48.028Z,3.27
2018-06-19T04:39:51.144Z,3.45
2018-06-19T04:40:55.608Z,3.02
2018-06-19T04:41:58.754Z,3.45
2018-06-19T04:43:02.103Z,3.30
2018-06-19T04:44:05.939Z,3.10
2018-06-19T04:45:10.470Z,3.35
2018-06-19T04:46:15.134Z,2.85
2018-06-19T04:47:18.572Z,3.27
2018-06-19T04:48:21.953Z,3.20
2018-06-19T04:49:25.381Z,3.17
2018-06-19T04:50:29.754Z,2.95
2018-06-19T04:51:33.180Z,3.30
2018-06-19T04:52:36.252Z,3.37
2018-06-19T04:53:39.330Z,3.22
2018-06-19T04:54:42.442Z,3.27
2018-06-19T04:55:47.078Z,2.75
2018-06-19T04:56:50.497Z,3.20
2018-06-19T04:57:53.872Z,3.42
2018-06-19T04:58:57.247Z,3.08
2018-06-19T05:00:00.671Z,3.22
2018-06-19T05:01:05.209Z,3.08
2018-06-19T05:02:08.631Z,3.25
2018-06-19T05:03:12.024Z,2.95
2018-06-19T05:04:15.420Z,3.33
2018-06-19T05:05:19.826Z,3.27
2018-06-19T05:06:24.366Z,2.90
2018-06-19T05:07:27.757Z,2.90
2018-06-19T05:08:30.843Z,3.00
2018-06-19T05:09:33.922Z,2.87
2018-06-19T05:10:38.442Z,2.70
2018-06-19T05:11:43.103Z,3.17
2018-06-19T05:12:46.540Z,2.98
2018-06-19T05:13:49.891Z,2.90
2018-06-19T05:14:53.324Z,3.05
2018-06-19T05:15:57.680Z,2.67
2018-06-19T05:17:01.090Z,2.45
2018-06-19T05:18:04.483Z,2.90
2018-06-19T05:19:07.767Z,3.47
2018-06-19T05:20:11.661Z,3.35
2018-06-19T05:21:16.740Z,3.42
2018-06-19T05:22:20.176Z,3.27
2018-06-19T05:23:23.564Z,3.05
2018-06-19T05:24:26.638Z,3.33
2018-06-19T05:25:30.659Z,3.67
2018-06-19T05:26:34.068Z,2.90
2018-06-19T05:27:37.463Z,2.70
2018-06-19T05:28:40.844Z,3.35
2018-06-19T05:29:44.260Z,3.40
2018-06-19T05:30:48.759Z,3.17
2018-06-19T05:31:52.208Z,3.08
2018-06-19T05:32:55.647Z,3.47
2018-06-19T05:33:59.211Z,3.25
2018-06-19T05:35:02.996Z,3.77
2018-06-19T05:36:08.159Z,2.80
2018-06-19T05:37:11.547Z,3.30
2018-06-19T05:38:14.955Z,3.17
2018-06-19T05:39:18.379Z,3.35
2018-06-19T05:40:22.732Z,3.12
2018-06-19T05:41:27.064Z,3.35
2018-06-19T05:42:31.296Z,3.17
2018-06-19T05:43:34.772Z,3.15
2018-06-19T05:44:38.147Z,2.95
2018-06-19T05:45:42.369Z,2.90
2018-06-19T05:46:45.787Z,3.00
2018-06-19T05:47:49.167Z,3.05
2018-06-19T05:48:52.583Z,3.15
2018-06-19T05:49:55.988Z,3.47
2018-06-19T05:51:00.564Z,2.80
2018-06-19T05:52:03.987Z,3.50
2018-06-19T05:53:07.640Z,3.00
2018-06-19T05:54:11.044Z,3.12
2018-06-19T05:55:15.539Z,3.17
2018-06-19T05:56:20.553Z,3.17
2018-06-19T05:57:23.983Z,3.35
2018-06-19T05:58:27.054Z,2.55
2018-06-19T05:59:30.456Z,3.08
2018-06-19T06:00:36.440Z,2.80
2018-06-19T06:01:39.864Z,3.27
2018-06-19T06:02:43.251Z,3.17
2018-06-19T06:03:46.631Z,3.25
2018-06-19T06:04:50.052Z,3.00
2018-06-19T06:05:55.943Z,3.05
2018-06-19T06:06:59.339Z,3.00
2018-06-19T06:08:02.750Z,3.30
2018-06-19T06:09:08.343Z,3.47
2018-06-19T06:10:12.858Z,4.58
2018-06-19T06:11:17.243Z,3.20
2018-06-19T06:12:20.673Z,2.85
2018-06-19T06:13:24.079Z,2.77
2018-06-19T06:14:27.455Z,2.85
2018-06-19T06:15:32.076Z,3.05
2018-06-19T06:16:35.506Z,3.55
2018-06-19T06:17:38.854Z,3.02
2018-06-19T06:18:41.931Z,3.00
2018-06-19T06:19:45.311Z,3.02
2018-06-19T06:20:49.767Z,2.83
2018-06-19T06:21:53.188Z,3.40
2018-06-19T06:22:56.569Z,3.15
2018-06-19T06:24:00.088Z,3.33
2018-06-19T06:25:03.408Z,3.17
2018-06-19T06:26:07.816Z,3.10
2018-06-19T06:27:11.216Z,3.40
2018-06-19T06:28:14.579Z,3.00
2018-06-19T06:29:17.963Z,3.50
2018-06-19T06:30:22.678Z,3.60
2018-06-19T06:31:27.303Z,3.70
2018-06-19T06:32:30.747Z,3.17
2018-06-19T06:33:34.120Z,3.72
2018-06-19T06:34:43.963Z,2.98
2018-06-19T06:35:48.516Z,2.85
2018-06-19T06:36:51.952Z,3.22
2018-06-19T06:37:55.359Z,3.20
2018-06-19T06:38:58.766Z,3.30
2018-06-19T06:40:02.143Z,3.10
2018-06-19T06:41:06.827Z,3.20
2018-06-19T06:42:10.252Z,3.00
2018-06-19T06:43:13.632Z,2.70
2018-06-19T06:44:16.746Z,2.98
2018-06-19T06:45:21.130Z,3.25
2018-06-19T06:46:25.176Z,2.92
2018-06-19T06:47:28.336Z,2.65
2018-06-19T06:48:31.719Z,2.77
2018-06-19T06:49:35.100Z,3.50
2018-06-19T06:50:39.518Z,2.80
2018-06-19T06:51:42.953Z,3.00
2018-06-19T06:52:46.403Z,3.30
2018-06-19T06:53:49.779Z,3.22
2018-06-19T06:54:53.184Z,2.95
2018-06-19T06:55:57.615Z,3.45
2018-06-19T06:57:01.725Z,3.10
2018-06-19T06:58:05.423Z,3.25
2018-06-19T06:59:08.795Z,3.40
2018-06-19T07:00:13.125Z,3.35
2018-06-19T07:01:17.584Z,3.30
2018-06-19T07:02:21.015Z,2.98
2018-06-19T07:03:24.411Z,2.67
2018-06-19T07:04:28.099Z,3.05
2018-06-19T07:05:32.567Z,2.58
2018-06-19T07:06:35.983Z,2.95
2018-06-19T07:07:39.404Z,3.10
2018-06-19T07:08:42.784Z,3.52
2018-06-19T07:09:46.179Z,3.55
2018-06-19T07:10:50.674Z,2.95
2018-06-19T07:11:54.090Z,3.15
2018-06-19T07:12:57.476Z,2.92
2018-06-19T07:14:00.881Z,3.47
2018-06-19T07:15:04.769Z,3.60
2018-06-19T07:16:09.219Z,3.12
2018-06-19T07:17:12.633Z,3.05
2018-06-19T07:18:16.015Z,3.22
2018-06-19T07:19:19.432Z,3.20
2018-06-19T07:20:23.788Z,3.10
2018-06-19T07:21:27.611Z,3.50
2018-06-19T07:22:30.738Z,3.15
2018-06-19T07:23:34.123Z,3.00
2018-06-19T07:24:37.523Z,3.90
2018-06-19T07:25:41.851Z,3.35
2018-06-19T07:26:45.291Z,3.40
2018-06-19T07:27:48.708Z,3.33
2018-06-19T07:28:52.087Z,3.58
2018-06-19T07:29:55.535Z,3.15
2018-06-19T07:31:00.118Z,3.20
2018-06-19T07:32:03.241Z,3.45
2018-06-19T07:33:06.756Z,3.00
2018-06-19T07:34:10.131Z,3.47
2018-06-19T07:35:14.513Z,3.30
2018-06-19T07:36:19.055Z,3.33
2018-06-19T07:37:22.476Z,2.80
2018-06-19T07:38:25.887Z,3.40
2018-06-19T07:39:29.280Z,3.30
2018-06-19T07:40:33.841Z,3.27
2018-06-19T07:41:37.415Z,3.22
2018-06-19T07:42:47.143Z,3.35
2018-06-19T07:43:50.608Z,3.27
2018-06-19T07:44:54.015Z,3.17
2018-06-19T07:45:58.553Z,3.83
2018-06-19T07:47:01.660Z,3.70
2018-06-19T07:48:04.746Z,2.92
2018-06-19T07:49:07.815Z,4.03
2018-06-19T07:50:12.331Z,3.60
2018-06-19T07:51:16.880Z,3.27
2018-06-19T07:52:20.299Z,3.80
2018-06-19T07:53:23.705Z,3.22
2018-06-19T07:54:27.090Z,3.10
2018-06-19T07:55:31.567Z,3.65
2018-06-19T07:56:34.975Z,3.50
2018-06-19T07:57:38.360Z,3.27
2018-06-19T07:58:41.735Z,3.10
2018-06-19T07:59:45.148Z,3.50
2018-06-19T08:00:49.736Z,3.00
2018-06-19T08:01:52.883Z,3.50
2018-06-19T08:02:56.266Z,3.98
2018-06-19T08:03:59.687Z,3.60
2018-06-19T08:05:03.453Z,4.25
2018-06-19T08:06:07.299Z,4.08
2018-06-19T08:07:10.741Z,3.80
2018-06-19T08:08:14.135Z,4.30
2018-06-19T08:09:17.579Z,3.65
2018-06-19T08:10:22.040Z,3.27
2018-06-19T08:11:27.319Z,3.72
2018-06-19T08:12:30.760Z,3.62
2018-06-19T08:13:34.372Z,4.05
2018-06-19T08:14:37.951Z,3.47
2018-06-19T08:15:42.285Z,3.50
2018-06-19T08:16:45.375Z,3.62
2018-06-19T08:17:48.534Z,3.80
2018-06-19T08:18:51.940Z,3.60
2018-06-19T08:19:55.019Z,3.75
2018-06-19T08:20:58.745Z,3.25
2018-06-19T08:22:02.257Z,3.60
2018-06-19T08:23:05.663Z,3.62
2018-06-19T08:24:09.044Z,3.83
2018-06-19T08:25:13.567Z,3.33
2018-06-19T08:26:17.621Z,3.40
2018-06-19T08:27:21.039Z,3.52
2018-06-19T08:28:24.435Z,3.47
2018-06-19T08:29:27.837Z,3.70
2018-06-19T08:30:32.257Z,3.98
2018-06-19T08:31:35.655Z,3.42
2018-06-19T08:32:39.023Z,3.50
2018-06-19T08:33:42.427Z,3.65
2018-06-19T08:34:45.799Z,3.72
2018-06-19T08:35:50.406Z,3.42
2018-06-19T08:36:53.574Z,4.05
2018-06-19T08:37:56.967Z,3.75
2018-06-19T08:39:00.387Z,3.98
2018-06-19T08:40:04.297Z,3.83
2018-06-19T08:41:08.840Z,3.42
2018-06-19T08:42:12.251Z,3.50
2018-06-19T08:43:15.620Z,3.77
2018-06-19T08:44:19.027Z,3.40
2018-06-19T08:45:24.098Z,4.08
2018-06-19T08:46:28.887Z,3.80
2018-06-19T08:47:32.287Z,4.00
2018-06-19T08:48:35.663Z,3.92
2018-06-19T08:49:39.095Z,4.17
2018-06-19T08:50:43.449Z,3.87
2018-06-19T08:51:46.861Z,4.30
2018-06-19T08:52:50.260Z,3.75
2018-06-19T08:53:53.644Z,3.67
2018-06-19T08:54:57.043Z,4.20
2018-06-19T08:56:01.496Z,4.12
2018-06-19T08:57:04.920Z,3.80
2018-06-19T08:58:08.306Z,4.15
2018-06-19T08:59:11.728Z,3.83
2018-06-19T09:00:16.217Z,4.40
2018-06-19T09:01:21.346Z,4.33
2018-06-19T09:02:24.952Z,4.78
2018-06-19T09:03:28.339Z,3.98
2018-06-19T09:04:31.715Z,4.30
2018-06-19T09:05:36.310Z,4.97
2018-06-19T09:06:39.711Z,4.40
2018-06-19T09:07:43.147Z,4.03
2018-06-19T09:08:46.226Z,4.25
2018-06-19T09:09:49.310Z,4.17
2018-06-19T09:10:53.670Z,4.25
2018-06-19T09:11:57.080Z,4.33
2018-06-19T09:13:00.475Z,4.05
2018-06-19T09:14:03.907Z,4.03
2018-06-19T09:15:08.457Z,4.05
2018-06-19T09:16:13.029Z,4.45
2018-06-19T09:17:16.431Z,4.33
2018-06-19T09:18:19.827Z,3.87
2018-06-19T09:19:23.218Z,4.42
2018-06-19T09:20:28.649Z,4.10
2018-06-19T09:21:32.540Z,4.35
2018-06-19T09:22:35.920Z,4.12
2018-06-19T09:23:39.311Z,4.75
2018-06-19T09:24:42.687Z,4.58
2018-06-19T09:25:47.911Z,4.37
2018-06-19T09:26:51.339Z,4.47
2018-06-19T09:27:54.723Z,4.33
2018-06-19T09:28:58.107Z,4.62
2018-06-19T09:30:01.484Z,4.20
2018-06-19T09:31:06.248Z,4.97
2018-06-19T09:32:09.699Z,4.97
2018-06-19T09:33:13.120Z,4.47
2018-06-19T09:34:16.195Z,4.55
2018-06-19T09:35:19.975Z,4.83
2018-06-19T09:36:23.482Z,5.22
2018-06-19T09:37:26.630Z,5.40
2018-06-19T09:38:30.199Z,4.95
2018-06-19T09:39:33.595Z,5.10
2018-06-19T09:40:38.053Z,4.75
2018-06-19T09:41:42.322Z,4.65
2018-06-19T09:42:45.739Z,5.20
2018-06-19T09:43:48.815Z,4.87
2018-06-19T09:44:51.917Z,4.90
2018-06-19T09:45:56.348Z,5.05
2018-06-19T09:46:59.817Z,4.78
2018-06-19T09:48:02.896Z,5.00
2018-06-19T09:49:06.271Z,4.72
2018-06-19T09:50:10.772Z,4.95
2018-06-19T09:51:15.267Z,5.10
2018-06-19T09:52:18.676Z,5.58
2018-06-19T09:53:21.794Z,5.30
2018-06-19T09:54:25.192Z,5.70
2018-06-19T09:55:29.611Z,5.37
2018-06-19T09:56:33.039Z,5.40
2018-06-19T09:57:36.106Z,5.97
2018-06-19T09:58:39.534Z,5.30
2018-06-19T09:59:42.941Z,5.10
2018-06-19T10:00:47.681Z,5.40
2018-06-19T10:01:50.847Z,4.87
2018-06-19T10:02:54.299Z,5.22
2018-06-19T10:03:57.699Z,4.47
2018-06-19T10:05:01.071Z,4.83
2018-06-19T10:06:05.537Z,5.30
2018-06-19T10:07:08.927Z,4.75
2018-06-19T10:08:12.312Z,5.00
2018-06-19T10:09:15.708Z,4.87
2018-06-19T10:10:19.431Z,4.85
2018-06-19T10:11:23.800Z,5.28
2018-06-19T10:12:27.203Z,4.92
2018-06-19T10:13:30.295Z,5.08
2018-06-19T10:14:33.716Z,5.28
2018-06-19T10:15:38.129Z,6.00
2018-06-19T10:16:41.246Z,5.65
2018-06-19T10:17:44.674Z,5.40
2018-06-19T10:18:48.053Z,5.58
2018-06-19T10:19:51.459Z,5.95
2018-06-19T10:20:56.497Z,5.97
2018-06-19T10:21:59.916Z,6.47
2018-06-19T10:23:02.999Z,6.33
2018-06-19T10:24:06.524Z,5.28
2018-06-19T10:25:11.259Z,4.90
2018-06-19T10:26:16.089Z,5.00
2018-06-19T10:27:19.480Z,5.30
2018-06-19T10:28:22.865Z,4.72
2018-06-19T10:29:26.251Z,5.67
2018-06-19T10:30:30.637Z,4.53
2018-06-19T10:31:34.043Z,6.35
2018-06-19T10:32:37.453Z,6.42
2018-06-19T10:33:40.819Z,6.35
2018-06-19T10:34:44.187Z,6.55
2018-06-19T10:35:48.599Z,4.83
2018-06-19T10:36:52.006Z,4.90
2018-06-19T10:37:55.384Z,4.97
2018-06-19T10:38:58.775Z,4.50
2018-06-19T10:40:02.685Z,5.95
2018-06-19T10:41:06.633Z,5.30
2018-06-19T10:42:10.051Z,5.20
2018-06-19T10:43:13.425Z,4.05
2018-06-19T10:44:16.803Z,3.72
2018-06-19T10:45:21.359Z,3.50
2018-06-19T10:46:25.456Z,3.92
2018-06-19T10:47:28.631Z,3.75
2018-06-19T10:48:31.998Z,4.03
2018-06-19T10:49:35.367Z,4.67
2018-06-19T10:50:39.790Z,4.30
2018-06-19T10:51:43.423Z,4.12
2018-06-19T10:52:46.520Z,4.62
2018-06-19T10:53:49.607Z,3.70
2018-06-19T10:54:53.059Z,4.15
2018-06-19T10:55:57.264Z,4.00
2018-06-19T10:57:00.702Z,4.60
2018-06-19T10:58:04.271Z,4.17
2018-06-19T10:59:07.815Z,4.55
2018-06-19T11:00:18.471Z,3.87
2018-06-19T11:01:22.655Z,4.80
2018-06-19T11:02:26.067Z,3.90
2018-06-19T11:03:29.444Z,4.22
2018-06-19T11:04:32.823Z,5.08
2018-06-19T11:05:37.349Z,3.90
2018-06-19T11:06:40.450Z,5.83
2018-06-19T11:07:43.546Z,6.70
2018-06-19T11:08:46.923Z,4.20
2018-06-19T11:09:50.311Z,5.83
2018-06-19T11:10:54.815Z,4.50
2018-06-19T11:11:58.315Z,4.58
2018-06-19T11:13:01.717Z,4.37
2018-06-19T11:14:05.164Z,6.90
2018-06-19T11:15:15.662Z,6.35
2018-06-19T11:16:20.233Z,6.53
2018-06-19T11:17:23.322Z,5.60
2018-06-19T11:18:26.411Z,5.15
2018-06-19T11:19:29.793Z,4.97
2018-06-19T11:20:34.375Z,5.30
2018-06-19T11:21:37.896Z,5.00
2018-06-19T11:22:40.978Z,4.80
2018-06-19T11:23:44.379Z,4.95
2018-06-19T11:24:47.755Z,5.55
2018-06-19T11:25:52.814Z,5.75
2018-06-19T11:26:56.235Z,5.30
2018-06-19T11:28:02.591Z,4.92
2018-06-19T11:29:06.067Z,5.60
2018-06-19T11:30:10.392Z,5.67
2018-06-19T11:31:14.760Z,6.00
2018-06-19T11:32:18.163Z,5.65
2018-06-19T11:33:21.539Z,5.70
2018-06-19T11:34:24.939Z,5.85
2018-06-19T11:35:29.329Z,5.78
2018-06-19T11:36:32.731Z,6.25
2018-06-19T11:37:36.115Z,5.72
2018-06-19T11:38:39.543Z,5.70
2018-06-19T11:39:42.908Z,6.30
2018-06-19T11:40:47.676Z,7.80
2018-06-19T11:41:51.147Z,5.80
2018-06-19T11:42:54.524Z,6.05
2018-06-19T11:43:57.619Z,5.00
2018-06-19T11:45:00.894Z,5.00
2018-06-19T11:46:05.481Z,4.40
2018-06-19T11:47:08.901Z,5.15
2018-06-19T11:48:12.314Z,5.03
2018-06-19T11:49:15.737Z,4.62
2018-06-19T11:50:20.115Z,5.10
2018-06-19T11:51:24.258Z,4.97
2018-06-19T11:52:27.691Z,5.12
2018-06-19T11:53:31.099Z,5.22
2018-06-19T11:54:34.493Z,5.40
2018-06-19T11:55:39.156Z,5.10
2018-06-19T11:56:42.630Z,5.35
2018-06-19T11:57:46.011Z,4.85
2018-06-19T11:58:50.604Z,4.33
2018-06-19T11:59:53.995Z,4.55
2018-06-19T12:00:58.565Z,4.42
2018-06-19T12:02:01.986Z,5.08
2018-06-19T12:03:05.426Z,4.62
2018-06-19T12:04:08.803Z,4.55
2018-06-19T12:05:12.691Z,4.58
2018-06-19T12:06:16.522Z,4.60
2018-06-19T12:07:19.908Z,4.28
2018-06-19T12:08:23.287Z,4.40
2018-06-19T12:09:26.679Z,4.92
2018-06-19T12:10:31.157Z,4.50
2018-06-19T12:11:34.580Z,4.50
2018-06-19T12:12:38.394Z,4.50
2018-06-19T12:13:41.778Z,4.70
2018-06-19T12:14:45.595Z,4.50
2018-06-19T12:15:50.426Z,4.33
2018-06-19T12:16:53.864Z,4.47
2018-06-19T12:17:57.234Z,4.08
2018-06-19T12:19:00.653Z,4.20
2018-06-19T12:20:04.611Z,4.40
2018-06-19T12:21:08.976Z,4.20
2018-06-19T12:22:12.111Z,4.10
2018-06-19T12:23:15.515Z,3.95
2018-06-19T12:24:18.884Z,4.20
2018-06-19T12:25:23.427Z,5.10
2018-06-19T12:26:27.227Z,4.58
2018-06-19T12:27:30.351Z,4.33
2018-06-19T12:28:33.434Z,4.00
2018-06-19T12:29:36.850Z,3.70
2018-06-19T12:30:41.505Z,3.60
2018-06-19T12:31:44.892Z,3.87
2018-06-19T12:32:48.283Z,3.95
2018-06-19T12:33:51.687Z,3.75
2018-06-19T12:34:55.323Z,3.27
2018-06-19T12:35:59.853Z,3.40
2018-06-19T12:37:03.235Z,3.83
2018-06-19T12:38:06.644Z,3.52
2018-06-19T12:39:11.445Z,3.35
2018-06-19T12:40:15.783Z,3.90
2018-06-19T12:41:23.474Z,3.72
2018-06-19T12:42:26.551Z,3.67
2018-06-19T12:43:29.651Z,4.00
2018-06-19T12:44:33.023Z,3.80
2018-06-19T12:45:37.603Z,3.80
2018-06-19T12:46:41.779Z,3.30
2018-06-19T12:47:45.190Z,3.62
2018-06-19T12:48:48.599Z,3.60
2018-06-19T12:49:57.404Z,3.40
2018-06-19T12:52:10.647Z,3.92
2018-06-19T12:53:25.275Z,3.33
2018-06-19T12:54:40.000Z,3.62
2018-06-19T12:55:55.522Z,3.95
2018-06-19T12:56:58.929Z,3.65
2018-06-19T12:58:02.315Z,4.15
2018-06-19T12:59:05.698Z,3.47
2018-06-19T13:00:10.184Z,3.27
2018-06-19T13:01:14.643Z,3.58
2018-06-19T13:02:18.065Z,3.20
2018-06-19T13:03:32.636Z,3.30
2018-06-19T13:04:47.491Z,3.30
2018-06-19T13:06:02.815Z,3.52
2018-06-19T13:07:06.219Z,3.35
2018-06-19T13:08:09.603Z,3.50
2018-06-19T13:09:12.971Z,2.90
2018-06-19T13:10:17.837Z,3.62
2018-06-19T13:11:22.379Z,3.55
2018-06-19T13:12:36.979Z,3.25
2018-06-19T13:13:45.638Z,3.42
2018-06-19T13:14:49.020Z,3.40
2018-06-19T13:15:54.091Z,3.60
2018-06-19T13:17:08.747Z,4.00
2018-06-19T13:18:17.534Z,3.42
2018-06-19T13:19:32.390Z,3.22
2018-06-19T13:20:45.803Z,3.72
2018-06-19T13:21:49.210Z,3.62
2018-06-19T13:22:52.759Z,3.70
2018-06-19T13:23:56.156Z,3.87
2018-06-19T13:24:59.536Z,3.83
2018-06-19T13:26:06.705Z,3.58
2018-06-19T13:27:10.125Z,3.70
2018-06-19T13:28:13.520Z,3.40
2018-06-19T13:29:42.576Z,3.52
2018-06-19T13:30:57.923Z,3.58
2018-06-19T13:32:01.739Z,3.40
2018-06-19T13:34:31.567Z,3.90
2018-06-19T13:35:37.045Z,3.80
2018-06-19T13:36:40.449Z,4.08
2018-06-19T13:37:43.834Z,3.77
2018-06-19T13:38:47.220Z,3.12
2018-06-19T13:41:04.848Z,3.65
2018-06-19T13:42:21.115Z,3.22
2018-06-19T13:43:29.791Z,3.33
2018-06-19T13:44:44.659Z,2.80
2018-06-19T13:45:49.219Z,3.45
2018-06-19T13:46:52.662Z,3.60
2018-06-19T13:47:56.032Z,3.17
2018-06-19T13:48:59.410Z,3.20
2018-06-19T13:50:03.321Z,3.20
2018-06-19T13:51:07.842Z,3.00
2018-06-19T13:52:11.256Z,3.10
2018-06-19T13:53:14.378Z,3.22
2018-06-19T13:54:17.787Z,3.50
2018-06-19T13:56:32.092Z,3.52
2018-06-19T13:57:46.881Z,3.62
2018-06-19T13:58:50.291Z,3.60
2018-06-19T13:59:53.987Z,3.58
2018-06-19T14:00:58.340Z,3.30
2018-06-19T14:02:01.827Z,3.60
2018-06-19T14:03:05.175Z,3.40
2018-06-19T14:04:08.247Z,3.40
2018-06-19T14:05:12.855Z,3.52
2018-06-19T14:06:16.686Z,3.42
2018-06-19T14:07:21.360Z,3.35
2018-06-19T14:08:36.567Z,3.17
2018-06-19T14:09:56.259Z,3.17
2018-06-19T14:11:11.396Z,3.35
2018-06-19T14:12:29.704Z,3.00
2018-06-19T14:13:32.798Z,3.30
2018-06-19T14:14:36.183Z,3.25
2018-06-19T14:15:42.049Z,3.52
2018-06-19T14:16:45.462Z,3.55
2018-06-19T14:17:48.840Z,3.50